createdAt,value
2022-11-08T00:05:40.397Z,2.92
2022-11-08T00:08:37.949Z,3.06
2022-11-08T00:11:55.998Z,3.14
2022-11-08T00:14:31.723Z,3.23
2022-11-08T00:17:08.530Z,3.31
2022-11-08T00:19:41.294Z,3.44
2022-11-08T00:22:15.130Z,3.42
2022-11-08T00:24:48.176Z,3.49
2022-11-08T00:27:22.633Z,3.58
2022-11-08T00:30:33.204Z,3.62
2022-11-08T00:33:24.176Z,3.74
2022-11-08T00:37:05.786Z,3.89
2022-11-08T00:39:38.628Z,3.96
2022-11-08T00:42:08.910Z,4.08
2022-11-08T00:44:39.470Z,4.15
2022-11-08T00:47:09.771Z,4.24
2022-11-08T00:49:40.244Z,4.32
2022-11-08T00:52:10.485Z,4.41
2022-11-08T00:54:40.638Z,4.51
2022-11-08T00:59:17.150Z,4.59
2022-11-08T01:00:46.248Z,4.72
2022-11-08T01:03:52.114Z,4.80
2022-11-08T01:06:25.355Z,4.92
2022-11-08T01:08:58.664Z,5.05
2022-11-08T01:11:30.069Z,5.15
2022-11-08T01:14:02.526Z,5.26
2022-11-08T01:16:36.342Z,5.36
2022-11-08T01:19:08.402Z,5.40
2022-11-08T01:22:22.872Z,5.55
2022-11-08T01:25:07.807Z,5.59
2022-11-08T01:27:37.970Z,5.72
2022-11-08T01:30:10.356Z,5.83
2022-11-08T01:32:46.705Z,5.93
2022-11-08T01:35:18.619Z,6.02
2022-11-08T01:47:01.591Z,6.41
2022-11-08T02:06:28.019Z,7.03
2022-11-08T02:09:06.894Z,7.14
2022-11-08T02:11:52.566Z,7.22
2022-11-08T02:14:24.175Z,7.28
2022-11-08T02:17:55.586Z,7.42
2022-11-08T02:21:00.444Z,7.53
2022-11-08T02:23:56.515Z,7.66
2022-11-08T02:26:36.676Z,7.71
2022-11-08T02:29:34.678Z,7.84
2022-11-08T02:32:07.925Z,7.91
2022-11-08T02:34:54.477Z,7.99
2022-11-08T02:37:30.230Z,8.08
2022-11-08T02:44:15.800Z,8.31
2022-11-08T02:47:26.928Z,8.41
2022-11-08T02:50:10.944Z,8.54
2022-11-08T02:52:55.685Z,8.61
2022-11-08T02:55:25.763Z,8.69
2022-11-08T02:57:55.786Z,8.78
2022-11-08T03:00:25.968Z,8.87
2022-11-08T03:03:00.849Z,8.90
2022-11-08T03:05:32.565Z,8.99
2022-11-08T03:08:04.149Z,9.03
2022-11-08T03:10:36.139Z,9.12
2022-11-08T03:13:11.497Z,9.17
2022-11-08T03:15:41.884Z,9.22
2022-11-08T03:18:11.805Z,9.31
2022-11-08T03:20:42.507Z,9.36
2022-11-08T03:23:14.174Z,9.42
2022-11-08T03:25:45.320Z,9.50
2022-11-08T03:28:23.294Z,9.57
2022-11-08T03:30:55.566Z,9.64
2022-11-08T03:33:28.952Z,9.66
2022-11-08T03:36:12.974Z,9.72
2022-11-08T03:38:44.483Z,9.78
2022-11-08T03:41:20.882Z,9.84
2022-11-08T03:43:56.757Z,9.88
2022-11-08T03:46:27.627Z,9.93
2022-11-08T03:48:58.487Z,10.00
2022-11-08T03:51:28.457Z,10.05
2022-11-08T03:53:58.509Z,10.07
2022-11-08T03:56:30.089Z,10.10
2022-11-08T03:59:01.055Z,10.16
2022-11-08T04:01:31.156Z,10.20
2022-11-08T04:04:01.675Z,10.27
2022-11-08T04:06:31.232Z,10.33
2022-11-08T04:09:01.308Z,10.36
2022-11-08T04:11:50.162Z,10.44
2022-11-08T04:14:39.406Z,10.49
2022-11-08T04:17:09.495Z,10.54
2022-11-08T04:19:59.503Z,10.59
2022-11-08T04:22:31.383Z,10.62
2022-11-08T04:25:02.722Z,10.65
2022-11-08T04:27:34.117Z,10.69
2022-11-08T04:30:07.269Z,10.75
2022-11-08T04:32:38.734Z,10.74
2022-11-08T04:35:10.330Z,10.78
2022-11-08T04:37:42.326Z,10.84
2022-11-08T04:40:14.618Z,10.87
2022-11-08T04:42:49.032Z,10.91
2022-11-08T04:45:19.488Z,10.97
2022-11-08T04:47:51.076Z,11.02
2022-11-08T04:50:22.500Z,11.04
2022-11-08T04:52:58.479Z,11.09
2022-11-08T04:55:28.772Z,11.17
2022-11-08T04:58:03.737Z,11.23
2022-11-08T05:00:34.221Z,11.23
2022-11-08T05:03:04.822Z,11.30
2022-11-08T05:05:36.409Z,11.32
2022-11-08T05:08:08.711Z,11.37
2022-11-08T05:10:38.962Z,11.41
2022-11-08T05:13:11.032Z,11.43
2022-11-08T05:15:42.381Z,11.48
2022-11-08T05:18:12.615Z,11.52
2022-11-08T05:21:02.501Z,11.55
2022-11-08T05:23:34.913Z,11.60
2022-11-08T05:26:06.133Z,11.64
2022-11-08T05:28:37.601Z,11.67
2022-11-08T05:31:09.715Z,11.70
2022-11-08T05:33:42.106Z,11.74
2022-11-08T05:36:14.809Z,11.77
2022-11-08T05:38:47.565Z,11.80
2022-11-08T05:41:21.930Z,11.85
2022-11-08T05:43:54.642Z,11.87
2022-11-08T05:46:26.254Z,11.88
2022-11-08T05:48:58.139Z,11.91
2022-11-08T05:51:29.672Z,11.94
2022-11-08T05:54:00.609Z,11.99
2022-11-08T05:56:30.907Z,12.03
2022-11-08T05:59:01.404Z,12.04
2022-11-08T06:01:31.996Z,12.06
2022-11-08T06:04:03.126Z,12.06
2022-11-08T06:06:35.187Z,12.08
2022-11-08T06:09:07.418Z,12.10
2022-11-08T06:11:39.927Z,12.12
2022-11-08T06:14:13.469Z,12.12
2022-11-08T06:16:44.089Z,12.20
2022-11-08T06:19:16.230Z,12.21
2022-11-08T06:21:48.643Z,12.26
2022-11-08T06:24:20.390Z,12.27
2022-11-08T06:26:52.577Z,12.29
2022-11-08T06:29:25.523Z,12.30
2022-11-08T06:31:57.285Z,12.35
2022-11-08T06:34:29.425Z,12.36
2022-11-08T06:37:01.581Z,12.41
2022-11-08T06:39:33.360Z,12.45
2022-11-08T06:42:04.941Z,12.47
2022-11-08T06:44:36.533Z,12.48
2022-11-08T06:47:07.148Z,12.49
2022-11-08T06:49:39.451Z,12.52
2022-11-08T06:52:10.850Z,12.55
2022-11-08T06:54:41.903Z,12.53
2022-11-08T06:57:13.059Z,12.53
2022-11-08T06:59:44.192Z,12.56
2022-11-08T07:02:15.367Z,12.55
2022-11-08T07:04:45.652Z,12.53
2022-11-08T07:07:16.678Z,12.51
2022-11-08T07:09:46.687Z,12.50
2022-11-08T07:12:17.224Z,12.50
2022-11-08T07:14:48.654Z,12.50
2022-11-08T07:17:19.780Z,12.47
2022-11-08T07:19:50.061Z,12.49
2022-11-08T07:22:20.753Z,12.47
2022-11-08T07:24:51.139Z,12.44
2022-11-08T07:27:21.717Z,12.45
2022-11-08T07:29:51.936Z,12.44
2022-11-08T07:32:22.319Z,12.44
2022-11-08T07:34:53.600Z,12.44
2022-11-08T07:37:25.208Z,12.44
2022-11-08T07:39:56.514Z,12.41
2022-11-08T07:42:38.398Z,12.42
2022-11-08T07:45:18.158Z,12.45
2022-11-08T07:47:50.953Z,12.46
2022-11-08T07:50:24.789Z,12.47
2022-11-08T07:53:00.694Z,12.44
2022-11-08T07:55:31.899Z,12.43
2022-11-08T07:58:04.446Z,12.44
2022-11-08T08:00:41.413Z,12.46
2022-11-08T08:03:14.844Z,12.45
2022-11-08T08:05:46.986Z,12.40
2022-11-08T08:08:18.642Z,12.44
2022-11-08T08:10:49.905Z,12.40
2022-11-08T08:13:21.069Z,12.35
2022-11-08T08:15:51.855Z,12.31
2022-11-08T08:18:24.430Z,12.26
2022-11-08T08:20:54.877Z,12.25
2022-11-08T08:23:31.661Z,12.18
2022-11-08T08:26:06.361Z,12.15
2022-11-08T08:28:37.174Z,12.06
2022-11-08T08:31:08.342Z,12.02
2022-11-08T08:33:39.884Z,11.95
2022-11-08T08:36:11.112Z,11.88
2022-11-08T08:38:44.737Z,11.84
2022-11-08T08:41:16.432Z,11.78
2022-11-08T08:43:46.714Z,11.68
2022-11-08T08:46:17.712Z,11.63
2022-11-08T08:48:48.547Z,11.54
2022-11-08T08:51:19.311Z,11.46
2022-11-08T08:53:50.795Z,11.39
2022-11-08T08:56:22.563Z,11.28
2022-11-08T09:01:44.315Z,11.12
2022-11-08T09:04:15.845Z,11.03
2022-11-08T09:06:48.985Z,10.94
2022-11-08T09:09:20.870Z,10.87
2022-11-08T09:11:51.029Z,10.80
2022-11-08T09:14:21.471Z,10.73
2022-11-08T09:16:53.178Z,10.61
2022-11-08T09:19:24.327Z,10.57
2022-11-08T09:21:55.657Z,10.46
2022-11-08T09:24:25.817Z,10.45
2022-11-08T09:26:56.797Z,10.38
2022-11-08T09:29:27.115Z,10.32
2022-11-08T09:31:59.805Z,10.27
2022-11-08T09:34:32.154Z,10.22
2022-11-08T09:37:02.201Z,10.16
2022-11-08T09:39:32.655Z,10.13
2022-11-08T09:42:24.598Z,10.08
2022-11-08T09:45:12.697Z,10.03
2022-11-08T09:47:46.688Z,9.99
2022-11-08T09:50:41.522Z,9.93
2022-11-08T09:53:36.432Z,9.89
2022-11-08T09:56:21.654Z,9.84
2022-11-08T09:59:06.853Z,9.78
2022-11-08T10:01:39.576Z,9.76
2022-11-08T10:04:17.745Z,9.70
2022-11-08T10:07:16.982Z,9.69
2022-11-08T10:10:07.115Z,9.62
2022-11-08T10:12:47.598Z,9.56
2022-11-08T10:15:21.898Z,9.52
2022-11-08T10:17:52.279Z,9.47
2022-11-08T10:20:51.621Z,9.44
2022-11-08T10:23:23.715Z,9.40
2022-11-08T10:26:12.278Z,9.37
2022-11-08T10:29:01.695Z,9.35
2022-11-08T10:31:36.939Z,9.29
2022-11-08T10:34:19.726Z,9.29
2022-11-08T10:36:52.852Z,9.28
2022-11-08T10:39:30.926Z,9.28
2022-11-08T10:42:12.112Z,9.22
2022-11-08T10:44:44.126Z,9.21
2022-11-08T10:47:28.434Z,9.17
2022-11-08T10:50:03.427Z,9.12
2022-11-08T10:52:37.388Z,9.09
2022-11-08T10:55:25.044Z,9.04
2022-11-08T10:57:56.747Z,9.01
2022-11-08T11:00:31.887Z,9.01
2022-11-08T11:03:06.355Z,9.01
2022-11-08T11:05:45.621Z,8.99
2022-11-08T11:08:18.706Z,8.99
2022-11-08T11:10:50.434Z,8.96
2022-11-08T11:13:20.951Z,8.93
2022-11-08T11:16:07.395Z,8.88
2022-11-08T11:18:51.785Z,8.85
2022-11-08T11:21:26.688Z,8.77
2022-11-08T11:24:29.804Z,8.79
2022-11-08T11:26:59.736Z,8.77
2022-11-08T11:29:37.959Z,8.73
2022-11-08T11:32:28.771Z,8.68
2022-11-08T11:35:06.371Z,8.57
2022-11-08T11:37:46.905Z,8.54
2022-11-08T11:40:35.697Z,8.53
2022-11-08T11:43:11.729Z,8.51
2022-11-08T11:46:04.663Z,8.46
2022-11-08T11:48:46.613Z,8.44
2022-11-08T11:51:18.309Z,8.39
2022-11-08T11:53:49.315Z,8.36
2022-11-08T11:56:29.115Z,8.32
2022-11-08T11:59:22.341Z,8.28
2022-11-08T12:02:23.687Z,8.22
2022-11-08T12:05:31.692Z,8.21
2022-11-08T12:08:18.665Z,8.14
2022-11-08T12:11:09.984Z,8.12
2022-11-08T12:14:05.647Z,8.09
2022-11-08T12:16:49.562Z,8.07
2022-11-08T12:19:42.804Z,8.02
2022-11-08T12:22:51.418Z,8.00
2022-11-08T12:25:46.127Z,7.98
2022-11-08T12:28:27.407Z,7.97
2022-11-08T12:31:24.263Z,7.93
2022-11-08T12:34:05.187Z,7.91
2022-11-08T12:37:01.926Z,7.88
2022-11-08T12:39:42.769Z,7.82
2022-11-08T12:42:27.555Z,7.70
2022-11-08T12:45:10.723Z,7.69
2022-11-08T12:48:04.436Z,7.59
2022-11-08T12:50:37.593Z,7.55
2022-11-08T12:53:45.649Z,7.51
2022-11-08T12:56:29.417Z,7.43
2022-11-08T12:59:01.355Z,7.37
2022-11-08T13:01:32.424Z,7.32
2022-11-08T13:04:22.562Z,7.28
2022-11-08T13:07:13.060Z,7.23
2022-11-08T13:09:58.404Z,7.12
2022-11-08T13:13:11.858Z,7.03
2022-11-08T13:16:14.380Z,6.93
2022-11-08T13:18:56.956Z,6.89
2022-11-08T13:21:36.514Z,6.87
2022-11-08T13:24:37.827Z,6.84
2022-11-08T13:27:46.797Z,6.80
2022-11-08T13:30:20.188Z,6.81
2022-11-08T13:33:07.369Z,6.74
2022-11-08T13:36:24.749Z,6.78
2022-11-08T13:39:27.291Z,6.74
2022-11-08T13:42:27.242Z,6.70
2022-11-08T13:45:17.350Z,6.68
2022-11-08T13:47:51.683Z,6.67
2022-11-08T13:50:32.346Z,6.64
2022-11-08T13:53:32.696Z,6.61
2022-11-08T13:56:10.123Z,6.61
2022-11-08T13:58:47.968Z,6.60
2022-11-08T14:01:21.652Z,6.60
2022-11-08T14:03:57.130Z,6.60
2022-11-08T14:07:00.431Z,6.57
2022-11-08T14:10:10.328Z,6.58
2022-11-08T14:13:05.324Z,6.53
2022-11-08T14:16:13.608Z,6.53
2022-11-08T14:18:49.494Z,6.55
2022-11-08T14:21:26.156Z,6.51
2022-11-08T14:23:59.656Z,6.53
2022-11-08T14:26:35.300Z,6.52
2022-11-08T14:29:12.572Z,6.53
2022-11-08T14:31:43.745Z,6.58
2022-11-08T14:34:53.045Z,6.65
2022-11-08T14:37:33.867Z,6.67
2022-11-08T14:40:05.915Z,6.72
2022-11-08T14:42:37.392Z,6.71
2022-11-08T14:45:23.148Z,6.71
2022-11-08T14:48:06.960Z,6.68
2022-11-08T14:50:38.727Z,6.66
2022-11-08T14:53:34.427Z,6.67
2022-11-08T14:56:14.809Z,6.66
2022-11-08T14:58:46.664Z,6.58
2022-11-08T15:01:22.337Z,6.55
2022-11-08T15:04:03.468Z,6.55
2022-11-08T15:06:49.416Z,6.53
2022-11-08T15:09:38.355Z,6.55
2022-11-08T15:12:18.947Z,6.57
2022-11-08T15:15:04.347Z,6.57
2022-11-08T15:17:40.122Z,6.62
2022-11-08T15:20:17.038Z,6.63
2022-11-08T15:22:56.325Z,6.55
2022-11-08T15:25:38.602Z,6.44
2022-11-08T15:28:32.654Z,6.38
2022-11-08T15:31:08.247Z,6.28
2022-11-08T15:33:43.443Z,6.25
2022-11-08T15:36:17.875Z,6.18
2022-11-08T15:38:52.524Z,6.15
2022-11-08T15:41:41.612Z,6.16
2022-11-08T15:44:27.560Z,6.11
2022-11-08T15:47:02.890Z,6.13
2022-11-08T15:49:34.635Z,6.14
2022-11-08T15:52:07.142Z,6.19
2022-11-08T15:54:37.560Z,6.15
2022-11-08T15:57:09.541Z,6.17
2022-11-08T15:59:41.264Z,6.17
2022-11-08T16:02:16.862Z,6.17
2022-11-08T16:04:48.396Z,6.20
2022-11-08T16:07:20.576Z,6.16
2022-11-08T16:09:52.158Z,6.14
2022-11-08T16:12:25.214Z,6.06
2022-11-08T16:15:00.333Z,6.02
2022-11-08T16:17:35.073Z,5.94
2022-11-08T16:20:06.557Z,5.91
2022-11-08T16:22:39.883Z,5.86
2022-11-08T16:25:10.967Z,5.79
2022-11-08T16:27:41.612Z,5.79
2022-11-08T16:30:21.589Z,5.77
2022-11-08T16:32:54.154Z,5.75
2022-11-08T16:35:25.812Z,5.74
2022-11-08T16:37:56.631Z,5.69
2022-11-08T16:40:28.445Z,5.66
2022-11-08T16:42:59.293Z,5.60
2022-11-08T16:45:58.408Z,5.55
2022-11-08T16:48:27.120Z,5.53
2022-11-08T16:51:02.707Z,5.51
2022-11-08T16:53:34.833Z,5.50
2022-11-08T16:56:06.338Z,5.46
2022-11-08T16:58:37.321Z,5.45
2022-11-08T17:01:10.687Z,5.43
2022-11-08T17:03:42.056Z,5.39
2022-11-08T17:06:22.956Z,5.39
2022-11-08T17:08:53.557Z,5.38
2022-11-08T17:11:26.963Z,5.36
2022-11-08T17:13:58.296Z,5.30
2022-11-08T17:16:29.648Z,5.26
2022-11-08T17:19:00.676Z,5.22
2022-11-08T17:21:46.097Z,5.18
2022-11-08T17:24:21.815Z,5.15
2022-11-08T17:26:53.914Z,5.16
2022-11-08T17:29:26.034Z,5.15
2022-11-08T17:31:56.199Z,5.15
2022-11-08T17:34:27.990Z,5.18
2022-11-08T17:36:58.435Z,5.20
2022-11-08T17:39:30.098Z,5.21
2022-11-08T17:42:02.977Z,5.21
2022-11-08T17:44:34.097Z,5.21
2022-11-08T17:47:05.323Z,5.19
2022-11-08T17:49:41.229Z,5.18
2022-11-08T17:52:14.480Z,5.12
2022-11-08T17:54:50.274Z,5.08
2022-11-08T17:57:24.455Z,5.07
2022-11-08T17:59:54.792Z,5.07
2022-11-08T18:02:26.158Z,5.04
2022-11-08T18:04:56.418Z,5.05
2022-11-08T18:07:27.792Z,4.98
2022-11-08T18:09:59.018Z,4.99
2022-11-08T18:12:31.623Z,4.93
2022-11-08T18:15:02.636Z,4.90
2022-11-08T18:17:32.948Z,4.85
2022-11-08T18:20:03.535Z,4.89
2022-11-08T18:22:34.827Z,4.84
2022-11-08T18:25:05.649Z,4.77
2022-11-08T18:27:35.702Z,4.76
2022-11-08T18:30:07.136Z,4.73
2022-11-08T18:32:38.426Z,4.73
2022-11-08T18:35:08.317Z,4.73
2022-11-08T18:37:39.181Z,4.70
2022-11-08T18:40:11.044Z,4.69
2022-11-08T18:42:43.052Z,4.68
2022-11-08T18:45:14.623Z,4.69
2022-11-08T18:47:44.707Z,4.64
2022-11-08T18:50:14.968Z,4.60
2022-11-08T18:52:46.939Z,4.60
2022-11-08T18:55:19.527Z,4.64
2022-11-08T18:57:50.864Z,4.60
2022-11-08T19:00:21.444Z,4.55
2022-11-08T19:02:51.528Z,4.57
2022-11-08T19:05:22.862Z,4.55
2022-11-08T19:07:53.277Z,4.52
2022-11-08T19:10:23.617Z,4.49
2022-11-08T19:12:54.783Z,4.46
2022-11-08T19:15:30.410Z,4.45
2022-11-08T19:18:02.044Z,4.43
2022-11-08T19:20:33.291Z,4.40
2022-11-08T19:23:05.307Z,4.35
2022-11-08T19:25:36.211Z,4.31
2022-11-08T19:28:06.832Z,4.33
2022-11-08T19:30:37.130Z,4.34
2022-11-08T19:33:06.667Z,4.30
2022-11-08T19:35:39.300Z,4.27
2022-11-08T19:38:10.481Z,4.28
2022-11-08T19:40:43.486Z,4.25
2022-11-08T19:43:14.057Z,4.17
2022-11-08T19:45:50.572Z,4.22
2022-11-08T19:48:22.499Z,4.13
2022-11-08T19:50:54.381Z,4.18
2022-11-08T19:53:24.728Z,4.16
2022-11-08T19:56:01.664Z,4.14
2022-11-08T19:58:33.025Z,4.13
2022-11-08T20:01:14.485Z,4.16
2022-11-08T20:03:45.581Z,4.20
2022-11-08T20:06:20.015Z,4.22
2022-11-08T20:08:55.671Z,4.23
2022-11-08T20:11:26.341Z,4.27
2022-11-08T20:13:57.509Z,4.24
2022-11-08T20:16:35.411Z,4.24
2022-11-08T20:19:08.627Z,4.19
2022-11-08T20:21:45.480Z,4.15
2022-11-08T20:24:17.159Z,4.11
2022-11-08T20:26:47.619Z,4.09
2022-11-08T20:29:19.094Z,4.09
2022-11-08T20:31:53.056Z,4.08
2022-11-08T20:34:25.831Z,4.05
2022-11-08T20:36:56.508Z,4.00
2022-11-08T20:39:27.899Z,3.95
2022-11-08T20:41:58.886Z,3.94
2022-11-08T20:44:30.824Z,3.89
2022-11-08T20:47:06.229Z,3.85
2022-11-08T20:49:37.368Z,3.83
2022-11-08T20:52:07.597Z,3.84
2022-11-08T20:54:43.663Z,3.79
2022-11-08T20:57:15.551Z,3.77
2022-11-08T20:59:45.958Z,3.72
2022-11-08T21:02:17.052Z,3.73
2022-11-08T21:04:47.301Z,3.70
2022-11-08T21:08:01.255Z,3.69
2022-11-08T21:13:00.726Z,3.70
2022-11-08T21:15:31.287Z,3.71
2022-11-08T21:18:02.544Z,3.64
2022-11-08T21:20:34.886Z,3.63
2022-11-08T21:23:05.865Z,3.63
2022-11-08T21:25:36.032Z,3.61
2022-11-08T21:28:07.938Z,3.53
2022-11-08T21:30:38.500Z,3.53
2022-11-08T21:33:09.575Z,3.50
2022-11-08T21:35:39.904Z,3.50
2022-11-08T21:38:10.240Z,3.47
2022-11-08T21:40:40.389Z,3.44
2022-11-08T21:43:11.191Z,3.42
2022-11-08T21:45:42.465Z,3.45
2022-11-08T21:48:15.426Z,3.42
2022-11-08T21:50:46.649Z,3.41
2022-11-08T21:53:17.017Z,3.38
2022-11-08T21:55:47.960Z,3.36
2022-11-08T21:58:18.270Z,3.32
2022-11-08T22:00:52.776Z,3.33
2022-11-08T22:03:23.073Z,3.35
2022-11-08T22:05:53.998Z,3.32
2022-11-08T22:08:24.194Z,3.33
2022-11-08T22:10:54.169Z,3.30
2022-11-08T22:13:24.323Z,3.27
2022-11-08T22:15:54.065Z,3.23
2022-11-08T22:18:36.692Z,3.23
2022-11-08T22:21:33.210Z,3.20
2022-11-08T22:24:04.822Z,3.19
2022-11-08T22:26:35.317Z,3.13
2022-11-08T22:29:05.450Z,3.11
2022-11-08T22:31:37.937Z,3.07
2022-11-08T22:34:10.822Z,3.06
2022-11-08T22:36:45.200Z,3.05
2022-11-08T22:39:17.403Z,3.02
2022-11-08T22:41:51.243Z,2.99
2022-11-08T22:44:23.523Z,3.08
2022-11-08T22:46:53.639Z,3.08
2022-11-08T22:49:23.323Z,3.08
2022-11-08T22:51:53.892Z,3.05
2022-11-08T22:54:24.092Z,2.98
2022-11-08T22:56:54.119Z,3.02
2022-11-08T22:59:25.055Z,2.99
2022-11-08T23:01:56.055Z,2.93
2022-11-08T23:04:26.438Z,2.93
2022-11-08T23:06:56.249Z,2.95
2022-11-08T23:09:26.095Z,2.91
2022-11-08T23:12:14.237Z,2.88
2022-11-08T23:15:02.617Z,2.91
2022-11-08T23:17:32.868Z,2.90
2022-11-08T23:20:23.835Z,2.95
2022-11-08T23:23:11.925Z,2.95
2022-11-08T23:25:42.250Z,2.96
2022-11-08T23:28:30.285Z,3.01
2022-11-08T23:31:22.019Z,3.05
2022-11-08T23:33:52.035Z,3.08
2022-11-08T23:36:23.869Z,3.11
2022-11-08T23:38:55.016Z,3.11
2022-11-08T23:41:45.717Z,3.15
2022-11-08T23:44:29.468Z,3.21
2022-11-08T23:47:03.059Z,3.26
2022-11-08T23:49:35.476Z,3.29
2022-11-08T23:52:06.272Z,3.35
2022-11-08T23:54:36.993Z,3.41
2022-11-08T23:57:07.416Z,3.49
2022-11-08T23:59:38.561Z,3.51
